sensor_id;sensor_type;location;lat;lon;timestamp;pressure;altitude;pressure_sealevel;temperature;humidity
37764;BME280;23602;51.084;7.090;2023-06-22T00:00:45;100266.59;;;20.24;100.00
37764;BME280;23602;51.084;7.090;2023-06-22T00:03:10;100263.59;;;20.26;100.00
37764;BME280;23602;51.084;7.090;2023-06-22T00:05:35;100265.47;;;20.20;100.00
37764;BME280;23602;51.084;7.090;2023-06-22T00:08:04;100267.13;;;20.21;100.00
37764;BME280;23602;51.084;7.090;2023-06-22T00:10:30;100260.34;;;20.24;100.00
37764;BME280;23602;51.084;7.090;2023-06-22T00:12:55;100267.41;;;20.25;100.00
37764;BME280;23602;51.084;7.090;2023-06-22T00:15:20;100268.78;;;20.27;100.00
37764;BME280;23602;51.084;7.090;2023-06-22T00:17:46;100266.88;;;20.28;100.00
37764;BME280;23602;51.084;7.090;2023-06-22T00:20:11;100257.31;;;20.25;100.00
37764;BME280;23602;51.084;7.090;2023-06-22T00:22:37;100263.84;;;20.24;100.00
37764;BME280;23602;51.084;7.090;2023-06-22T00:25:06;100269.88;;;20.26;100.00
37764;BME280;23602;51.084;7.090;2023-06-22T00:27:31;100264.44;;;20.26;100.00
37764;BME280;23602;51.084;7.090;2023-06-22T00:29:56;100259.22;;;20.25;100.00
37764;BME280;23602;51.084;7.090;2023-06-22T00:32:22;100260.34;;;20.29;100.00
37764;BME280;23602;51.084;7.090;2023-06-22T00:34:48;100260.06;;;20.30;100.00
37764;BME280;23602;51.084;7.090;2023-06-22T00:37:13;100264.16;;;20.28;100.00
37764;BME280;23602;51.084;7.090;2023-06-22T00:39:38;100267.19;;;20.41;100.00
37764;BME280;23602;51.084;7.090;2023-06-22T00:42:04;100259.00;;;20.46;100.00
37764;BME280;23602;51.084;7.090;2023-06-22T00:44:29;100266.63;;;20.44;100.00
37764;BME280;23602;51.084;7.090;2023-06-22T00:46:54;100261.16;;;20.44;100.00
37764;BME280;23602;51.084;7.090;2023-06-22T00:49:20;100254.91;;;20.44;100.00
37764;BME280;23602;51.084;7.090;2023-06-22T00:51:45;100256.81;;;20.43;100.00
37764;BME280;23602;51.084;7.090;2023-06-22T00:54:12;100260.91;;;20.41;100.00
37764;BME280;23602;51.084;7.090;2023-06-22T00:56:39;100263.09;;;20.39;100.00
37764;BME280;23602;51.084;7.090;2023-06-22T00:59:04;100265.53;;;20.40;100.00
37764;BME280;23602;51.084;7.090;2023-06-22T01:01:29;100265.81;;;20.34;100.00
37764;BME280;23602;51.084;7.090;2023-06-22T01:03:55;100255.69;;;20.39;100.00
37764;BME280;23602;51.084;7.090;2023-06-22T01:06:26;100251.59;;;20.42;100.00
37764;BME280;23602;51.084;7.090;2023-06-22T01:09:02;100264.16;;;20.43;100.00
37764;BME280;23602;51.084;7.090;2023-06-22T01:11:52;100253.25;;;20.43;100.00
37764;BME280;23602;51.084;7.090;2023-06-22T01:14:20;100252.16;;;20.39;100.00
37764;BME280;23602;51.084;7.090;2023-06-22T01:16:48;100250.22;;;20.39;100.00
37764;BME280;23602;51.084;7.090;2023-06-22T01:21:42;100256.25;;;20.36;100.00
37764;BME280;23602;51.084;7.090;2023-06-22T01:29:17;100250.22;;;20.29;100.00
37764;BME280;23602;51.084;7.090;2023-06-22T01:31:43;100239.88;;;20.31;100.00
37764;BME280;23602;51.084;7.090;2023-06-22T01:34:09;100244.50;;;20.31;100.00
37764;BME280;23602;51.084;7.090;2023-06-22T01:36:36;100238.22;;;20.30;100.00
37764;BME280;23602;51.084;7.090;2023-06-22T01:39:02;100228.97;;;20.31;100.00
37764;BME280;23602;51.084;7.090;2023-06-22T01:41:30;100227.84;;;20.27;100.00
37764;BME280;23602;51.084;7.090;2023-06-22T01:43:56;100222.38;;;20.27;100.00
37764;BME280;23602;51.084;7.090;2023-06-22T01:46:21;100217.47;;;20.24;100.00
37764;BME280;23602;51.084;7.090;2023-06-22T01:48:50;100219.63;;;20.22;100.00
37764;BME280;23602;51.084;7.090;2023-06-22T01:51:19;100217.47;;;20.24;100.00
37764;BME280;23602;51.084;7.090;2023-06-22T01:53:44;100221.31;;;20.23;100.00
37764;BME280;23602;51.084;7.090;2023-06-22T01:56:10;100217.41;;;20.19;100.00
37764;BME280;23602;51.084;7.090;2023-06-22T01:58:36;100220.72;;;20.21;100.00
37764;BME280;23602;51.084;7.090;2023-06-22T02:01:12;100219.91;;;20.21;100.00
37764;BME280;23602;51.084;7.090;2023-06-22T02:03:39;100214.69;;;20.19;100.00
37764;BME280;23602;51.084;7.090;2023-06-22T02:06:07;100209.81;;;20.16;100.00
37764;BME280;23602;51.084;7.090;2023-06-22T02:08:39;100209.50;;;20.12;100.00
37764;BME280;23602;51.084;7.090;2023-06-22T02:11:05;100207.06;;;20.11;100.00
37764;BME280;23602;51.084;7.090;2023-06-22T02:13:31;100211.94;;;20.09;100.00
37764;BME280;23602;51.084;7.090;2023-06-22T02:15:57;100200.50;;;20.07;100.00
37764;BME280;23602;51.084;7.090;2023-06-22T02:18:22;100207.59;;;20.08;100.00
37764;BME280;23602;51.084;7.090;2023-06-22T02:20:48;100214.66;;;20.04;100.00
37764;BME280;23602;51.084;7.090;2023-06-22T02:23:13;100215.19;;;20.01;100.00
37764;BME280;23602;51.084;7.090;2023-06-22T02:25:39;100214.41;;;20.00;100.00
37764;BME280;23602;51.084;7.090;2023-06-22T02:28:04;100213.03;;;19.98;100.00
37764;BME280;23602;51.084;7.090;2023-06-22T02:30:30;100210.56;;;19.96;100.00
37764;BME280;23602;51.084;7.090;2023-06-22T02:32:55;100208.66;;;19.92;100.00
37764;BME280;23602;51.084;7.090;2023-06-22T02:35:28;100212.44;;;19.91;100.00
37764;BME280;23602;51.084;7.090;2023-06-22T02:38:00;100210.28;;;19.88;100.00
37764;BME280;23602;51.084;7.090;2023-06-22T02:40:26;100204.81;;;19.83;100.00
37764;BME280;23602;51.084;7.090;2023-06-22T02:42:51;100202.09;;;19.83;100.00
37764;BME280;23602;51.084;7.090;2023-06-22T02:45:16;100208.34;;;19.83;100.00
37764;BME280;23602;51.084;7.090;2023-06-22T02:47:42;100200.72;;;19.80;100.00
37764;BME280;23602;51.084;7.090;2023-06-22T02:50:07;100193.91;;;19.78;100.00
37764;BME280;23602;51.084;7.090;2023-06-22T02:52:32;100193.31;;;19.76;100.00
37764;BME280;23602;51.084;7.090;2023-06-22T02:54:58;100193.06;;;19.72;100.00
37764;BME280;23602;51.084;7.090;2023-06-22T02:57:24;100191.13;;;19.68;100.00
37764;BME280;23602;51.084;7.090;2023-06-22T02:59:49;100183.22;;;19.66;100.00
37764;BME280;23602;51.084;7.090;2023-06-22T03:02:15;100182.38;;;19.66;100.00
37764;BME280;23602;51.084;7.090;2023-06-22T03:04:40;100177.22;;;19.64;100.00
37764;BME280;23602;51.084;7.090;2023-06-22T03:07:05;100171.47;;;19.66;100.00
37764;BME280;23602;51.084;7.090;2023-06-22T03:09:31;100167.13;;;19.65;100.00
37764;BME280;23602;51.084;7.090;2023-06-22T03:11:56;100173.66;;;19.64;100.00
37764;BME280;23602;51.084;7.090;2023-06-22T03:14:22;100170.38;;;19.62;100.00
37764;BME280;23602;51.084;7.090;2023-06-22T03:16:47;100169.84;;;19.60;100.00
37764;BME280;23602;51.084;7.090;2023-06-22T03:19:12;100167.13;;;19.60;100.00
37764;BME280;23602;51.084;7.090;2023-06-22T03:21:38;100173.63;;;19.59;100.00
37764;BME280;23602;51.084;7.090;2023-06-22T03:24:04;100164.63;;;19.58;100.00
37764;BME280;23602;51.084;7.090;2023-06-22T03:26:30;100172.28;;;19.56;100.00
37764;BME280;23602;51.084;7.090;2023-06-22T03:28:55;100162.19;;;19.57;100.00
37764;BME280;23602;51.084;7.090;2023-06-22T03:31:21;100166.81;;;19.56;100.00
37764;BME280;23602;51.084;7.090;2023-06-22T03:33:47;100163.53;;;19.54;100.00
37764;BME280;23602;51.084;7.090;2023-06-22T03:36:16;100160.28;;;19.52;100.00
37764;BME280;23602;51.084;7.090;2023-06-22T03:38:44;100159.44;;;19.51;100.00
37764;BME280;23602;51.084;7.090;2023-06-22T03:41:09;100164.63;;;19.53;100.00
37764;BME280;23602;51.084;7.090;2023-06-22T03:43:35;100157.81;;;19.50;100.00
37764;BME280;23602;51.084;7.090;2023-06-22T03:46:00;100154.28;;;19.50;100.00
37764;BME280;23602;51.084;7.090;2023-06-22T03:48:26;100157.25;;;19.48;100.00
37764;BME280;23602;51.084;7.090;2023-06-22T03:50:51;100154.53;;;19.48;100.00
37764;BME280;23602;51.084;7.090;2023-06-22T03:53:16;100155.34;;;19.49;100.00
37764;BME280;23602;51.084;7.090;2023-06-22T03:55:48;100156.19;;;19.49;100.00
37764;BME280;23602;51.084;7.090;2023-06-22T03:58:14;100160.81;;;19.49;100.00
37764;BME280;23602;51.084;7.090;2023-06-22T04:00:40;100151.28;;;19.51;100.00
37764;BME280;23602;51.084;7.090;2023-06-22T04:03:05;100145.84;;;19.57;100.00
37764;BME280;23602;51.084;7.090;2023-06-22T04:05:32;100152.94;;;19.58;100.00
37764;BME280;23602;51.084;7.090;2023-06-22T04:07:57;100157.28;;;19.59;100.00
37764;BME280;23602;51.084;7.090;2023-06-22T04:10:23;100154.56;;;19.59;100.00
37764;BME280;23602;51.084;7.090;2023-06-22T04:12:48;100155.38;;;19.59;100.00
37764;BME280;23602;51.084;7.090;2023-06-22T04:15:13;100153.72;;;19.58;100.00
37764;BME280;23602;51.084;7.090;2023-06-22T04:17:39;100151.28;;;19.57;100.00
37764;BME280;23602;51.084;7.090;2023-06-22T04:20:04;100153.19;;;19.56;100.00
37764;BME280;23602;51.084;7.090;2023-06-22T04:22:30;100155.66;;;19.58;100.00
37764;BME280;23602;51.084;7.090;2023-06-22T04:24:55;100160.00;;;19.59;100.00
37764;BME280;23602;51.084;7.090;2023-06-22T04:27:21;100157.03;;;19.60;100.00
37764;BME280;23602;51.084;7.090;2023-06-22T04:29:48;100160.31;;;19.62;100.00
37764;BME280;23602;51.084;7.090;2023-06-22T04:32:14;100156.22;;;19.65;100.00
37764;BME280;23602;51.084;7.090;2023-06-22T04:34:40;100148.06;;;19.70;100.00
37764;BME280;23602;51.084;7.090;2023-06-22T04:37:05;100152.38;;;19.66;100.00
37764;BME280;23602;51.084;7.090;2023-06-22T04:39:30;100160.59;;;19.71;100.00
37764;BME280;23602;51.084;7.090;2023-06-22T04:41:56;100156.50;;;19.73;100.00
37764;BME280;23602;51.084;7.090;2023-06-22T04:44:25;100157.88;;;19.81;100.00
37764;BME280;23602;51.084;7.090;2023-06-22T04:46:52;100156.50;;;19.78;100.00
37764;BME280;23602;51.084;7.090;2023-06-22T04:49:25;100153.53;;;19.75;100.00
37764;BME280;23602;51.084;7.090;2023-06-22T04:52:00;100157.34;;;19.79;100.00
37764;BME280;23602;51.084;7.090;2023-06-22T04:54:26;100154.91;;;19.82;100.00
37764;BME280;23602;51.084;7.090;2023-06-22T04:56:51;100152.19;;;19.87;100.00
37764;BME280;23602;51.084;7.090;2023-06-22T04:59:24;100153.00;;;19.93;100.00
37764;BME280;23602;51.084;7.090;2023-06-22T05:01:56;100153.56;;;19.95;100.00
37764;BME280;23602;51.084;7.090;2023-06-22T05:04:23;100151.09;;;19.98;100.00
37764;BME280;23602;51.084;7.090;2023-06-22T05:06:49;100155.19;;;20.01;100.00
37764;BME280;23602;51.084;7.090;2023-06-22T05:09:14;100154.09;;;20.02;100.00
37764;BME280;23602;51.084;7.090;2023-06-22T05:11:39;100164.47;;;20.05;100.00
37764;BME280;23602;51.084;7.090;2023-06-22T05:14:05;100161.75;;;20.10;100.00
37764;BME280;23602;51.084;7.090;2023-06-22T05:16:30;100159.56;;;20.12;100.00
37764;BME280;23602;51.084;7.090;2023-06-22T05:18:59;100161.22;;;20.13;100.00
37764;BME280;23602;51.084;7.090;2023-06-22T05:21:26;100150.31;;;20.13;100.00
37764;BME280;23602;51.084;7.090;2023-06-22T05:23:52;100157.38;;;20.14;100.00
37764;BME280;23602;51.084;7.090;2023-06-22T05:26:24;100153.56;;;20.15;100.00
37764;BME280;23602;51.084;7.090;2023-06-22T05:28:50;100159.88;;;20.15;100.00
37764;BME280;23602;51.084;7.090;2023-06-22T05:31:15;100156.31;;;20.15;100.00
37764;BME280;23602;51.084;7.090;2023-06-22T05:33:41;100147.03;;;20.16;100.00
37764;BME280;23602;51.084;7.090;2023-06-22T05:36:07;100148.66;;;20.17;100.00
37764;BME280;23602;51.084;7.090;2023-06-22T05:38:32;100156.84;;;20.17;100.00
37764;BME280;23602;51.084;7.090;2023-06-22T05:41:02;100162.59;;;20.15;100.00
37764;BME280;23602;51.084;7.090;2023-06-22T05:43:28;100171.59;;;20.16;100.00
37764;BME280;23602;51.084;7.090;2023-06-22T05:45:53;100166.69;;;20.18;100.00
37764;BME280;23602;51.084;7.090;2023-06-22T05:48:19;100174.03;;;20.17;100.00
37764;BME280;23602;51.084;7.090;2023-06-22T05:50:44;100169.41;;;20.18;100.00
37764;BME280;23602;51.084;7.090;2023-06-22T05:53:09;100171.03;;;20.19;100.00
37764;BME280;23602;51.084;7.090;2023-06-22T05:55:35;100172.97;;;20.18;100.00
37764;BME280;23602;51.084;7.090;2023-06-22T05:58:00;100173.75;;;20.19;100.00
37764;BME280;23602;51.084;7.090;2023-06-22T06:00:26;100176.25;;;20.21;100.00
37764;BME280;23602;51.084;7.090;2023-06-22T06:02:51;100178.97;;;20.21;100.00
37764;BME280;23602;51.084;7.090;2023-06-22T06:05:16;100178.13;;;20.20;100.00
37764;BME280;23602;51.084;7.090;2023-06-22T06:07:43;100182.53;;;20.21;100.00
37764;BME280;23602;51.084;7.090;2023-06-22T06:10:09;100185.50;;;20.19;100.00
37764;BME280;23602;51.084;7.090;2023-06-22T06:12:34;100187.97;;;20.21;100.00
37764;BME280;23602;51.084;7.090;2023-06-22T06:15:00;100197.78;;;20.22;100.00
37764;BME280;23602;51.084;7.090;2023-06-22T06:17:25;100194.56;;;20.25;100.00
37764;BME280;23602;51.084;7.090;2023-06-22T06:19:51;100191.81;;;20.25;100.00
37764;BME280;23602;51.084;7.090;2023-06-22T06:22:16;100200.56;;;20.27;100.00
37764;BME280;23602;51.084;7.090;2023-06-22T06:24:43;100204.66;;;20.30;100.00
37764;BME280;23602;51.084;7.090;2023-06-22T06:27:09;100204.94;;;20.33;100.00
37764;BME280;23602;51.084;7.090;2023-06-22T06:29:34;100196.22;;;20.36;100.00
37764;BME280;23602;51.084;7.090;2023-06-22T06:31:59;100203.81;;;20.44;100.00
37764;BME280;23602;51.084;7.090;2023-06-22T06:34:25;100197.28;;;20.50;100.00
37764;BME280;23602;51.084;7.090;2023-06-22T06:36:50;100201.09;;;20.54;100.00
37764;BME280;23602;51.084;7.090;2023-06-22T06:39:16;100206.31;;;20.61;100.00
37764;BME280;23602;51.084;7.090;2023-06-22T06:41:41;100209.84;;;20.66;100.00
37764;BME280;23602;51.084;7.090;2023-06-22T06:44:06;100206.56;;;20.74;100.00
37764;BME280;23602;51.084;7.090;2023-06-22T06:46:32;100210.09;;;20.80;100.00
37764;BME280;23602;51.084;7.090;2023-06-22T06:48:57;100213.66;;;20.86;100.00
37764;BME280;23602;51.084;7.090;2023-06-22T06:51:23;100221.84;;;20.91;100.00
37764;BME280;23602;51.084;7.090;2023-06-22T06:53:49;100214.44;;;20.96;100.00
37764;BME280;23602;51.084;7.090;2023-06-22T06:56:14;100203.81;;;21.00;100.00
37764;BME280;23602;51.084;7.090;2023-06-22T06:58:40;100206.25;;;21.06;100.00
37764;BME280;23602;51.084;7.090;2023-06-22T07:01:06;100198.34;;;21.10;100.00
37764;BME280;23602;51.084;7.090;2023-06-22T07:03:31;100195.31;;;21.16;100.00
37764;BME280;23602;51.084;7.090;2023-06-22T07:05:58;100186.00;;;21.27;100.00
37764;BME280;23602;51.084;7.090;2023-06-22T07:08:23;100175.25;;;21.41;100.00
37764;BME280;23602;51.084;7.090;2023-06-22T07:10:54;100183.13;;;21.58;100.00
37764;BME280;23602;51.084;7.090;2023-06-22T07:13:19;100183.06;;;21.73;100.00
37764;BME280;23602;51.084;7.090;2023-06-22T07:15:46;100173.44;;;21.85;100.00
37764;BME280;23602;51.084;7.090;2023-06-22T07:18:12;100166.03;;;21.91;100.00
37764;BME280;23602;51.084;7.090;2023-06-22T07:20:37;100153.91;;;21.97;100.00
37764;BME280;23602;51.084;7.090;2023-06-22T07:23:04;100144.88;;;22.01;100.00
37764;BME280;23602;51.084;7.090;2023-06-22T07:25:32;100151.38;;;22.11;100.00
37764;BME280;23602;51.084;7.090;2023-06-22T07:28:03;100145.25;;;22.24;100.00
37764;BME280;23602;51.084;7.090;2023-06-22T07:30:29;100145.69;;;22.36;100.00
37764;BME280;23602;51.084;7.090;2023-06-22T07:32:55;100143.38;;;22.48;100.00
37764;BME280;23602;51.084;7.090;2023-06-22T07:35:20;100136.19;;;22.62;100.00
37764;BME280;23602;51.084;7.090;2023-06-22T07:37:46;100136.53;;;22.79;100.00
37764;BME280;23602;51.084;7.090;2023-06-22T07:40:12;100133.88;;;22.98;100.00
37764;BME280;23602;51.084;7.090;2023-06-22T07:42:37;100132.63;;;23.09;100.00
37764;BME280;23602;51.084;7.090;2023-06-22T07:45:05;100126.31;;;23.13;100.00
37764;BME280;23602;51.084;7.090;2023-06-22T07:47:33;100119.69;;;23.14;100.00
37764;BME280;23602;51.084;7.090;2023-06-22T07:50:00;100115.28;;;23.18;100.00
37764;BME280;23602;51.084;7.090;2023-06-22T07:52:26;100108.09;;;23.22;100.00
37764;BME280;23602;51.084;7.090;2023-06-22T07:54:51;100111.75;;;23.37;100.00
37764;BME280;23602;51.084;7.090;2023-06-22T07:57:17;100105.56;;;23.50;100.00
37764;BME280;23602;51.084;7.090;2023-06-22T07:59:43;100099.84;;;23.65;100.00
37764;BME280;23602;51.084;7.090;2023-06-22T08:02:11;100089.47;;;23.80;100.00
37764;BME280;23602;51.084;7.090;2023-06-22T08:04:37;100082.44;;;23.74;100.00
37764;BME280;23602;51.084;7.090;2023-06-22T08:07:02;100085.81;;;23.85;100.00
37764;BME280;23602;51.084;7.090;2023-06-22T08:09:28;100079.88;;;23.97;100.00
37764;BME280;23602;51.084;7.090;2023-06-22T08:11:54;100082.09;;;24.13;100.00
37764;BME280;23602;51.084;7.090;2023-06-22T08:14:21;100081.91;;;24.23;100.00
37764;BME280;23602;51.084;7.090;2023-06-22T08:16:46;100072.16;;;24.31;100.00
37764;BME280;23602;51.084;7.090;2023-06-22T08:19:12;100069.06;;;24.37;100.00
37764;BME280;23602;51.084;7.090;2023-06-22T08:21:38;100064.28;;;24.57;100.00
37764;BME280;23602;51.084;7.090;2023-06-22T08:24:04;100068.81;;;24.80;100.00
37764;BME280;23602;51.084;7.090;2023-06-22T08:26:29;100054.78;;;24.81;100.00
37764;BME280;23602;51.084;7.090;2023-06-22T08:28:54;100054.06;;;25.03;100.00
37764;BME280;23602;51.084;7.090;2023-06-22T08:31:20;100043.22;;;25.20;100.00
37764;BME280;23602;51.084;7.090;2023-06-22T08:33:45;100037.50;;;25.30;100.00
37764;BME280;23602;51.084;7.090;2023-06-22T08:36:11;100038.28;;;25.44;100.00
37764;BME280;23602;51.084;7.090;2023-06-22T08:38:38;100033.19;;;25.51;100.00
37764;BME280;23602;51.084;7.090;2023-06-22T08:41:03;100021.81;;;25.66;100.00
37764;BME280;23602;51.084;7.090;2023-06-22T08:43:29;100019.66;;;25.77;100.00
37764;BME280;23602;51.084;7.090;2023-06-22T08:45:54;100024.84;;;26.01;100.00
37764;BME280;23602;51.084;7.090;2023-06-22T08:48:19;100024.06;;;26.09;100.00
37764;BME280;23602;51.084;7.090;2023-06-22T08:50:45;100011.91;;;26.10;100.00
37764;BME280;23602;51.084;7.090;2023-06-22T08:53:10;100018.50;;;26.22;100.00
37764;BME280;23602;51.084;7.090;2023-06-22T08:55:35;100016.31;;;26.11;100.00
37764;BME280;23602;51.084;7.090;2023-06-22T08:58:01;100013.84;;;26.09;100.00
37764;BME280;23602;51.084;7.090;2023-06-22T09:00:26;100017.56;;;26.27;100.00
37764;BME280;23602;51.084;7.090;2023-06-22T09:02:54;100009.91;;;26.24;100.00
37764;BME280;23602;51.084;7.090;2023-06-22T09:05:23;100001.84;;;26.27;100.00
37764;BME280;23602;51.084;7.090;2023-06-22T09:07:51;99998.22;;;26.49;100.00
37764;BME280;23602;51.084;7.090;2023-06-22T09:10:16;99998.88;;;26.55;100.00
37764;BME280;23602;51.084;7.090;2023-06-22T09:12:42;99991.84;;;26.40;100.00
37764;BME280;23602;51.084;7.090;2023-06-22T09:15:08;99982.59;;;26.36;100.00
37764;BME280;23602;51.084;7.090;2023-06-22T09:17:34;99970.47;;;26.46;100.00
37764;BME280;23602;51.084;7.090;2023-06-22T09:20:00;99971.34;;;26.24;100.00
37764;BME280;23602;51.084;7.090;2023-06-22T09:22:27;99970.59;;;26.10;100.00
37764;BME280;23602;51.084;7.090;2023-06-22T09:24:54;99972.53;;;26.09;100.00
37764;BME280;23602;51.084;7.090;2023-06-22T09:27:19;99973.03;;;26.11;100.00
37764;BME280;23602;51.084;7.090;2023-06-22T09:29:45;99966.94;;;26.14;100.00
37764;BME280;23602;51.084;7.090;2023-06-22T09:32:10;99972.50;;;26.23;100.00
37764;BME280;23602;51.084;7.090;2023-06-22T09:34:35;99967.59;;;26.20;100.00
37764;BME280;23602;51.084;7.090;2023-06-22T09:37:01;99968.56;;;26.15;100.00
37764;BME280;23602;51.084;7.090;2023-06-22T09:39:26;99954.53;;;26.34;100.00
37764;BME280;23602;51.084;7.090;2023-06-22T09:41:51;99944.06;;;26.53;100.00
37764;BME280;23602;51.084;7.090;2023-06-22T09:44:16;99938.75;;;26.65;100.00
37764;BME280;23602;51.084;7.090;2023-06-22T09:46:41;99938.94;;;26.69;100.00
37764;BME280;23602;51.084;7.090;2023-06-22T09:49:07;99931.47;;;26.69;100.00
37764;BME280;23602;51.084;7.090;2023-06-22T09:51:32;99932.25;;;26.61;100.00
37764;BME280;23602;51.084;7.090;2023-06-22T09:53:57;99937.16;;;26.64;100.00
37764;BME280;23602;51.084;7.090;2023-06-22T09:56:23;99924.81;;;26.70;100.00
37764;BME280;23602;51.084;7.090;2023-06-22T09:58:48;99926.44;;;26.71;100.00
37764;BME280;23602;51.084;7.090;2023-06-22T10:01:17;99942.66;;;26.73;100.00
37764;BME280;23602;51.084;7.090;2023-06-22T10:03:43;99936.06;;;26.82;100.00
37764;BME280;23602;51.084;7.090;2023-06-22T10:06:11;99938.50;;;26.92;100.00
37764;BME280;23602;51.084;7.090;2023-06-22T10:08:37;99936.91;;;26.91;100.00
37764;BME280;23602;51.084;7.090;2023-06-22T10:11:03;99933.28;;;26.82;100.00
37764;BME280;23602;51.084;7.090;2023-06-22T10:13:28;99933.72;;;26.59;100.00
37764;BME280;23602;51.084;7.090;2023-06-22T10:15:56;99933.53;;;26.47;100.00
37764;BME280;23602;51.084;7.090;2023-06-22T10:18:21;99943.88;;;26.41;100.00
37764;BME280;23602;51.084;7.090;2023-06-22T10:20:47;99949.69;;;26.31;100.00
37764;BME280;23602;51.084;7.090;2023-06-22T10:23:13;99949.59;;;26.14;100.00
37764;BME280;23602;51.084;7.090;2023-06-22T10:25:38;99950.00;;;26.07;100.00
37764;BME280;23602;51.084;7.090;2023-06-22T10:28:03;99966.31;;;25.95;100.00
37764;BME280;23602;51.084;7.090;2023-06-22T10:30:28;99974.44;;;25.78;100.00
37764;BME280;23602;51.084;7.090;2023-06-22T10:32:54;99988.78;;;25.66;100.00
37764;BME280;23602;51.084;7.090;2023-06-22T10:35:19;100000.88;;;25.57;100.00
37764;BME280;23602;51.084;7.090;2023-06-22T10:37:45;100004.78;;;25.42;100.00
37764;BME280;23602;51.084;7.090;2023-06-22T10:40:14;100013.88;;;25.29;100.00
37764;BME280;23602;51.084;7.090;2023-06-22T10:42:40;100012.16;;;25.20;100.00
37764;BME280;23602;51.084;7.090;2023-06-22T10:45:05;100013.81;;;25.07;100.00
37764;BME280;23602;51.084;7.090;2023-06-22T10:47:31;100018.41;;;24.98;100.00
37764;BME280;23602;51.084;7.090;2023-06-22T10:49:56;100024.22;;;24.83;100.00
37764;BME280;23602;51.084;7.090;2023-06-22T10:52:22;100032.44;;;24.69;100.00
37764;BME280;23602;51.084;7.090;2023-06-22T10:54:47;100028.38;;;24.53;100.00
37764;BME280;23602;51.084;7.090;2023-06-22T10:57:13;100054.28;;;24.33;100.00
37764;BME280;23602;51.084;7.090;2023-06-22T10:59:42;100049.97;;;24.14;100.00
37764;BME280;23602;51.084;7.090;2023-06-22T11:02:08;100066.44;;;23.95;100.00
37764;BME280;23602;51.084;7.090;2023-06-22T11:04:33;100069.50;;;23.75;100.00
37764;BME280;23602;51.084;7.090;2023-06-22T11:06:59;100090.34;;;23.57;100.00
37764;BME280;23602;51.084;7.090;2023-06-22T11:09:25;100108.16;;;23.41;100.00
37764;BME280;23602;51.084;7.090;2023-06-22T11:11:51;100102.28;;;23.24;100.00
37764;BME280;23602;51.084;7.090;2023-06-22T11:14:19;100109.63;;;23.10;100.00
37764;BME280;23602;51.084;7.090;2023-06-22T11:16:45;100121.22;;;23.02;100.00
37764;BME280;23602;51.084;7.090;2023-06-22T11:19:11;100133.38;;;22.96;100.00
37764;BME280;23602;51.084;7.090;2023-06-22T11:21:37;100140.88;;;22.85;100.00
37764;BME280;23602;51.084;7.090;2023-06-22T11:24:02;100146.97;;;22.77;100.00
37764;BME280;23602;51.084;7.090;2023-06-22T11:26:28;100138.28;;;22.70;100.00
37764;BME280;23602;51.084;7.090;2023-06-22T11:28:53;100122.47;;;22.62;100.00
37764;BME280;23602;51.084;7.090;2023-06-22T11:31:19;100103.03;;;22.58;100.00
37764;BME280;23602;51.084;7.090;2023-06-22T11:33:44;100070.22;;;22.53;100.00
37764;BME280;23602;51.084;7.090;2023-06-22T11:36:11;100042.59;;;22.50;100.00
37764;BME280;23602;51.084;7.090;2023-06-22T11:38:36;100048.66;;;22.47;100.00
37764;BME280;23602;51.084;7.090;2023-06-22T11:41:04;100056.41;;;22.40;100.00
37764;BME280;23602;51.084;7.090;2023-06-22T11:43:29;100058.59;;;22.38;100.00
37764;BME280;23602;51.084;7.090;2023-06-22T11:45:54;100063.22;;;22.42;100.00
37764;BME280;23602;51.084;7.090;2023-06-22T11:48:21;100056.94;;;22.42;100.00
37764;BME280;23602;51.084;7.090;2023-06-22T11:50:46;100046.50;;;22.44;100.00
37764;BME280;23602;51.084;7.090;2023-06-22T11:53:12;100039.97;;;22.40;100.00
37764;BME280;23602;51.084;7.090;2023-06-22T11:55:43;100024.59;;;22.44;100.00
37764;BME280;23602;51.084;7.090;2023-06-22T11:58:09;100010.88;;;22.44;100.00
37764;BME280;23602;51.084;7.090;2023-06-22T12:00:34;99982.47;;;22.40;100.00
37764;BME280;23602;51.084;7.090;2023-06-22T12:03:00;99981.97;;;22.33;100.00
37764;BME280;23602;51.084;7.090;2023-06-22T12:05:25;99984.25;;;22.26;100.00
37764;BME280;23602;51.084;7.090;2023-06-22T12:07:53;99994.09;;;22.27;100.00
37764;BME280;23602;51.084;7.090;2023-06-22T12:10:18;99998.50;;;22.23;100.00
37764;BME280;23602;51.084;7.090;2023-06-22T12:12:44;100008.53;;;22.32;100.00
37764;BME280;23602;51.084;7.090;2023-06-22T12:15:09;100034.81;;;22.33;100.00
37764;BME280;23602;51.084;7.090;2023-06-22T12:17:35;100049.81;;;22.41;100.00
37764;BME280;23602;51.084;7.090;2023-06-22T12:20:00;100044.38;;;22.64;100.00
37764;BME280;23602;51.084;7.090;2023-06-22T12:22:27;100015.03;;;22.89;100.00
37764;BME280;23602;51.084;7.090;2023-06-22T12:24:52;100005.13;;;23.11;100.00
37764;BME280;23602;51.084;7.090;2023-06-22T12:27:18;99971.06;;;23.17;100.00
37764;BME280;23602;51.084;7.090;2023-06-22T12:29:46;99965.06;;;23.15;100.00
37764;BME280;23602;51.084;7.090;2023-06-22T12:32:14;99969.41;;;23.16;100.00
37764;BME280;23602;51.084;7.090;2023-06-22T12:34:41;99974.25;;;23.06;100.00
37764;BME280;23602;51.084;7.090;2023-06-22T12:37:06;99959.94;;;22.90;100.00
37764;BME280;23602;51.084;7.090;2023-06-22T12:39:32;99951.31;;;22.78;100.00
37764;BME280;23602;51.084;7.090;2023-06-22T12:41:57;99953.63;;;22.71;100.00